x

Smith Island, Wa (sisw1) Weather Station

3:00pm - Thu 18th Dec 2014 All times are PST. -8 hours from GMT.

  • Wind
    32mph, 37mph gusts
  • 空気 Temp 49°f
  • Sea Pressure 1006.4mb
  • Smith Island, Wa
  • Smith Island, Wa

More Historic Weather Station data

Upgrade to MSW Pro to gain access to the past 30 days of data for over 8000 Wavebouys and Weather Stations around the globe.

Join Pro

Comparision Forecast

View Surf forecast
   
Thu 12/18 3:00pm 32 37 mph 1006.4mb 49f
2:00pm 29 32 mph 1007.4mb 49f
1:00pm 29 31 mph 1008.1mb 49f
12:00pm 24 26 mph 1009.3mb 48f
11:00am 30 32 mph 1010.7mb 49f
10:00am 25 29 mph 1011.4mb 48f
9:00am 21 22 mph 1011.7mb 47f
8:00am 18 22 mph 1011.8mb 47f
7:00am 10 11 mph 1012.6mb 47f
6:00am 15 16 mph 1012.7mb 46f
5:00am 16 17 mph 1012.7mb 46f
4:00am 14 16 mph 1012.7mb 46f
3:00am 11 13 mph 1013mb 46f
2:00am 13 14 mph 1012.7mb 46f
1:00am 11 14 mph 1012.5mb 46f
12:00am 8 9 mph 1012.6mb 45f
Wed 12/17 11:00pm 9 10 mph 1012.4mb 46f
10:00pm 8 9 mph 1012.4mb 46f
9:00pm 9 10 mph 1012.4mb 46f
8:00pm 6 7 mph 1012.3mb 46f
7:00pm 7 8 mph 1012.1mb 46f
6:00pm 8 9 mph 1011.8mb 47f
5:00pm 7 8 mph 1011.3mb 47f
4:00pm 11 13 mph 1010.7mb 47f
3:00pm 10 13 mph 1010.3mb 48f
2:00pm 11 13 mph 1010.3mb 48f
1:00pm 10 11 mph 1010.2mb 48f
12:00pm 10 11 mph 1010.3mb 47f
11:00am 14
mph
1010.6mb 47f
10:00am 14 16 mph 1010.2mb 47f
9:00am 10 11 mph 1009.7mb 46f
8:00am 13 15 mph 1009.2mb 46f
7:00am 17 18 mph 1009mb 46f
6:00am 18 21 mph 1008.9mb 46f
5:00am 15 16 mph 1009mb 47f
4:00am 11 13 mph 1008.8mb 47f
3:00am 8 9 mph 1009.2mb 46f
2:00am 8 9 mph 1009.3mb 46f
1:00am 11 13 mph 1009.2mb 47f
12:00am 15 16 mph 1009.5mb 47f
Tue 12/16 11:00pm 10 13 mph 1009.9mb 47f
10:00pm 14 16 mph 1009.6mb 47f
9:00pm 8 9 mph 1009.8mb 46f
8:00pm 7
mph
1010.1mb 46f
7:00pm 11 13 mph 1010.2mb 47f
6:00pm 11 14 mph 1010.2mb 47f
5:00pm 15 16 mph 1010.1mb 48f
4:00pm 14 16 mph 1010mb 49f
3:00pm 17 20 mph 1009.9mb 49f
2:00pm 16 18 mph 1009.4mb 49f
1:00pm 18 20 mph 1009.5mb 49f
12:00pm 22 23 mph 1009.6mb 49f
11:00am 16 20 mph 1010mb 49f
10:00am 18 22 mph 1010.1mb 49f
9:00am 15 17 mph 1009.7mb 48f
8:00am 14 16 mph 1009.5mb 47f
7:00am 16 18 mph 1009.4mb 48f
6:00am 18 21 mph 1009.2mb 48f
5:00am 17 18 mph 1009.1mb 48f
4:00am 15 16 mph 1009.4mb 49f
3:00am 13 15 mph 1009.5mb 48f
2:00am 16 17 mph 1009.4mb 49f
1:00am 14 17 mph 1009.5mb 48f
12:00am 16 18 mph 1009.8mb 50f
Mon 12/15 11:00pm 13 15 mph 1009.8mb 49f
10:00pm 15 16 mph 1009.8mb 47f
9:00pm 13 14 mph 1009.8mb 47f
8:00pm 8 9 mph 1010mb 46f
7:00pm 11
mph
1010.1mb 47f
6:00pm 10 11 mph 1010.3mb 47f
5:00pm 13 14 mph 1010.5mb 47f
4:00pm 13 14 mph 1011mb 48f
3:00pm 10 11 mph 1011.4mb 48f
2:00pm 13 15 mph 1011.3mb 50f
1:00pm 14 15 mph 1011.6mb 49f
12:00pm 13 14 mph 1012.4mb 46f
11:00am 13 15 mph 1013.1mb 46f
10:00am 15 16 mph 1013.4mb 46f
9:00am 15 17 mph 1013.3mb 44f
8:00am 15 16 mph 1013.5mb 43f
7:00am 22 25 mph 1013mb 43f
6:00am 18 20 mph 1013.6mb 44f
5:00am 20 21 mph 1013.6mb 44f
4:00am 21 22 mph 1013.4mb 46f
3:00am 20 21 mph 1014.2mb 46f
2:00am 17 18 mph 1014.6mb 46f
1:00am 18 21 mph 1015.1mb 46f